createdAt,value
2022-10-13T00:00:50.836Z,18.75
2022-10-13T00:03:18.933Z,19.55
2022-10-13T00:05:48.645Z,19.70
2022-10-13T00:08:19.933Z,22.02
2022-10-13T00:10:49.289Z,21.15
2022-10-13T00:13:20.237Z,19.58
2022-10-13T00:15:48.521Z,20.45
2022-10-13T00:18:16.742Z,20.73
2022-10-13T00:20:46.462Z,19.90
2022-10-13T00:23:14.089Z,22.85
2022-10-13T00:25:44.584Z,20.45
2022-10-13T00:28:14.535Z,21.85
2022-10-13T00:30:41.754Z,21.38
2022-10-13T00:33:10.893Z,20.88
2022-10-13T00:35:43.293Z,18.77
2022-10-13T00:38:11.810Z,16.00
2022-10-13T00:40:49.812Z,17.05
2022-10-13T00:43:19.643Z,15.63
2022-10-13T00:45:49.987Z,16.02
2022-10-13T00:48:20.979Z,18.65
2022-10-13T00:50:49.045Z,19.35
2022-10-13T00:53:18.287Z,18.35
2022-10-13T00:55:47.521Z,18.75
2022-10-13T00:58:16.868Z,20.30
2022-10-13T01:00:47.368Z,18.95
2022-10-13T01:03:19.514Z,20.67
2022-10-13T01:05:48.069Z,20.00
2022-10-13T01:08:16.520Z,21.83
2022-10-13T01:11:23.419Z,19.45
2022-10-13T01:13:56.947Z,19.38
2022-10-13T01:16:29.599Z,18.92
2022-10-13T01:19:32.341Z,19.45
2022-10-13T01:22:03.940Z,17.85
2022-10-13T01:24:41.898Z,17.95
2022-10-13T01:27:44.914Z,22.38
2022-10-13T01:30:23.164Z,24.20
2022-10-13T01:33:13.494Z,24.02
2022-10-13T01:35:40.708Z,25.17
2022-10-13T01:38:11.981Z,24.30
2022-10-13T01:40:53.047Z,23.10
2022-10-13T01:43:27.175Z,22.90
2022-10-13T01:46:02.215Z,24.00
2022-10-13T01:48:30.073Z,25.33
2022-10-13T01:50:59.956Z,23.33
2022-10-13T01:53:29.087Z,23.52
2022-10-13T01:56:00.127Z,22.38
2022-10-13T01:58:32.729Z,22.45
2022-10-13T02:01:14.443Z,23.90
2022-10-13T02:03:49.119Z,22.17
2022-10-13T02:09:06.396Z,22.27
2022-10-13T02:11:33.805Z,25.08
2022-10-13T02:14:09.807Z,22.45
2022-10-13T02:16:41.154Z,25.92
2022-10-13T02:19:11.696Z,23.48
2022-10-13T02:21:39.553Z,23.08
2022-10-13T02:24:07.942Z,22.25
2022-10-13T02:26:36.225Z,22.08
2022-10-13T02:29:16.012Z,21.80
2022-10-13T02:31:44.058Z,21.48
2022-10-13T02:34:11.912Z,22.80
2022-10-13T02:36:39.730Z,20.80
2022-10-13T02:39:08.554Z,22.40
2022-10-13T02:41:35.657Z,21.75
2022-10-13T02:44:02.931Z,22.92
2022-10-13T02:46:34.953Z,23.25
2022-10-13T02:49:02.062Z,20.55
2022-10-13T02:51:29.932Z,22.95
2022-10-13T02:53:57.035Z,24.08
2022-10-13T02:56:24.129Z,22.45
2022-10-13T02:58:51.171Z,24.08
2022-10-13T03:01:18.300Z,23.33
2022-10-13T03:03:45.310Z,24.60
2022-10-13T03:06:12.503Z,25.08
2022-10-13T03:08:39.644Z,28.58
2022-10-13T03:11:06.703Z,27.48
2022-10-13T03:13:33.948Z,32.60
2022-10-13T03:16:07.164Z,25.52
2022-10-13T03:18:35.005Z,25.10
2022-10-13T03:21:05.537Z,26.40
2022-10-13T03:23:34.425Z,23.75
2022-10-13T03:26:02.164Z,24.73
2022-10-13T03:28:29.340Z,25.58
2022-10-13T03:31:12.887Z,27.17
2022-10-13T03:33:40.690Z,25.23
2022-10-13T03:36:08.031Z,24.95
2022-10-13T03:38:36.072Z,24.50
2022-10-13T03:41:13.886Z,26.35
2022-10-13T03:43:42.206Z,26.60
2022-10-13T03:46:11.309Z,26.42
2022-10-13T03:48:39.010Z,28.00
2022-10-13T03:51:13.817Z,25.65
2022-10-13T03:53:40.857Z,26.85
2022-10-13T03:56:08.094Z,26.52
2022-10-13T04:01:13.783Z,23.92
2022-10-13T04:03:42.749Z,25.67
2022-10-13T04:06:10.131Z,25.80
2022-10-13T04:08:37.413Z,25.77
2022-10-13T04:11:08.806Z,27.17
2022-10-13T04:13:38.757Z,27.92
2022-10-13T04:16:15.703Z,27.33
2022-10-13T04:18:44.919Z,25.58
2022-10-13T04:21:14.779Z,29.23
2022-10-13T04:23:42.338Z,28.30
2022-10-13T04:26:19.489Z,27.42
2022-10-13T04:28:48.477Z,28.02
2022-10-13T04:31:16.061Z,29.88
2022-10-13T04:33:44.382Z,27.15
2022-10-13T04:36:13.038Z,27.48
2022-10-13T04:38:41.115Z,27.33
2022-10-13T04:41:09.451Z,25.80
2022-10-13T04:43:36.919Z,25.20
2022-10-13T04:46:07.069Z,23.10
2022-10-13T04:48:34.465Z,23.13
2022-10-13T04:51:03.794Z,27.02
2022-10-13T04:53:31.588Z,27.33
2022-10-13T04:56:03.848Z,26.20
2022-10-13T04:58:31.450Z,24.98
2022-10-13T05:01:01.938Z,25.05
2022-10-13T05:03:29.443Z,26.25
2022-10-13T05:05:56.964Z,27.15
2022-10-13T05:08:25.060Z,25.00
2022-10-13T05:10:58.424Z,26.20
2022-10-13T05:13:27.387Z,26.05
2022-10-13T05:15:58.002Z,25.27
2022-10-13T05:18:25.253Z,27.00
2022-10-13T05:20:52.291Z,25.25
2022-10-13T05:23:19.328Z,28.50
2022-10-13T05:25:46.540Z,26.35
2022-10-13T05:28:14.997Z,26.13
2022-10-13T05:30:42.144Z,22.90
2022-10-13T05:33:09.484Z,23.40
2022-10-13T05:35:36.647Z,21.52
2022-10-13T05:38:03.737Z,22.25
2022-10-13T05:40:30.968Z,23.73
2022-10-13T05:43:00.725Z,23.65
2022-10-13T05:45:32.428Z,26.27
2022-10-13T05:47:59.474Z,26.55
2022-10-13T05:50:26.814Z,22.10
2022-10-13T05:52:54.202Z,23.50
2022-10-13T05:55:21.279Z,20.92
2022-10-13T05:57:51.698Z,19.40
2022-10-13T06:00:20.332Z,19.25
2022-10-13T06:02:56.594Z,20.45
2022-10-13T06:05:26.663Z,19.52
2022-10-13T06:07:56.280Z,18.60
2022-10-13T06:10:24.232Z,18.33
2022-10-13T06:12:51.577Z,18.15
2022-10-13T06:15:23.303Z,19.95
2022-10-13T06:17:52.816Z,19.75
2022-10-13T06:20:20.526Z,18.10
2022-10-13T06:22:50.107Z,17.67
2022-10-13T06:25:17.386Z,20.60
2022-10-13T06:27:44.793Z,19.30
2022-10-13T06:30:12.343Z,18.00
2022-10-13T06:32:39.652Z,18.95
2022-10-13T06:35:07.347Z,18.77
2022-10-13T06:37:35.231Z,17.27
2022-10-13T06:40:02.879Z,18.55
2022-10-13T06:42:31.890Z,17.30
2022-10-13T06:45:14.847Z,17.52
2022-10-13T06:47:42.057Z,18.85
2022-10-13T06:50:09.585Z,19.52
2022-10-13T06:52:37.032Z,17.98
2022-10-13T06:55:05.032Z,18.88
2022-10-13T06:57:32.634Z,18.55
2022-10-13T07:00:02.105Z,19.80
2022-10-13T07:02:29.190Z,19.77
2022-10-13T07:04:56.295Z,18.17
2022-10-13T07:07:23.426Z,19.42
2022-10-13T07:09:50.540Z,19.58
2022-10-13T07:12:18.146Z,17.67
2022-10-13T07:14:45.540Z,18.00
2022-10-13T07:17:12.546Z,18.85
2022-10-13T07:19:39.735Z,19.40
2022-10-13T07:22:07.015Z,19.85
2022-10-13T07:24:34.071Z,20.02
2022-10-13T07:27:06.747Z,18.25
2022-10-13T07:29:35.118Z,20.23
2022-10-13T07:32:02.074Z,18.40
2022-10-13T07:34:29.148Z,16.42
2022-10-13T07:36:56.877Z,17.27
2022-10-13T07:39:23.906Z,17.27
2022-10-13T07:41:52.499Z,16.52
2022-10-13T07:44:19.767Z,16.85
2022-10-13T07:46:46.850Z,18.55
2022-10-13T07:49:16.234Z,17.48
2022-10-13T07:51:44.586Z,17.38
2022-10-13T07:54:11.790Z,16.55
2022-10-13T07:56:39.681Z,17.55
2022-10-13T07:59:07.715Z,17.42
2022-10-13T08:01:34.865Z,16.85
2022-10-13T08:04:02.644Z,15.63
2022-10-13T08:06:29.972Z,16.25
2022-10-13T08:08:58.352Z,17.10
2022-10-13T08:11:25.832Z,17.83
2022-10-13T08:13:53.245Z,16.80
2022-10-13T08:16:21.849Z,16.67
2022-10-13T08:18:49.506Z,18.95
2022-10-13T08:24:10.939Z,17.60
2022-10-13T08:26:38.327Z,17.02
2022-10-13T08:29:22.879Z,18.02
2022-10-13T08:31:53.087Z,16.95
2022-10-13T08:34:22.075Z,16.70
2022-10-13T08:36:52.911Z,16.95
2022-10-13T08:39:21.078Z,18.85
2022-10-13T08:41:48.854Z,17.20
2022-10-13T08:47:31.768Z,19.17
2022-10-13T08:50:04.256Z,19.55
2022-10-13T08:52:47.142Z,17.75
2022-10-13T08:55:23.411Z,18.42
2022-10-13T08:57:51.158Z,19.13
2022-10-13T09:00:20.934Z,21.00
2022-10-13T09:02:50.569Z,19.70
2022-10-13T09:05:32.778Z,17.52
2022-10-13T09:08:11.586Z,20.08
2022-10-13T09:10:48.110Z,18.33
2022-10-13T09:13:19.524Z,20.23
2022-10-13T09:15:50.370Z,18.75
2022-10-13T09:18:17.869Z,18.95
2022-10-13T09:20:44.954Z,18.48
2022-10-13T09:23:27.992Z,19.20
2022-10-13T09:25:56.277Z,20.73
2022-10-13T09:28:28.003Z,18.65
2022-10-13T09:31:15.133Z,19.27
2022-10-13T09:33:42.548Z,20.23
2022-10-13T09:36:12.796Z,20.23
2022-10-13T09:38:42.970Z,19.15
2022-10-13T09:41:10.018Z,20.23
2022-10-13T09:43:42.514Z,19.52
2022-10-13T09:46:38.691Z,17.30
2022-10-13T09:49:24.893Z,17.35
2022-10-13T09:51:52.593Z,19.02
2022-10-13T09:54:33.705Z,18.88
2022-10-13T09:57:41.382Z,18.63
2022-10-13T10:00:27.129Z,19.20
2022-10-13T10:02:57.920Z,19.17
2022-10-13T10:05:34.523Z,18.45
2022-10-13T10:08:12.469Z,18.27
2022-10-13T10:10:41.183Z,16.48
2022-10-13T10:13:12.576Z,17.35
2022-10-13T10:15:48.354Z,17.05
2022-10-13T10:18:22.849Z,17.83
2022-10-13T10:21:17.376Z,17.98
2022-10-13T10:24:04.141Z,17.00
2022-10-13T10:26:35.757Z,18.27
2022-10-13T10:29:15.239Z,17.05
2022-10-13T10:31:58.119Z,17.63
2022-10-13T10:34:31.584Z,18.67
2022-10-13T10:37:06.365Z,19.73
2022-10-13T10:40:01.077Z,20.98
2022-10-13T10:42:57.049Z,21.50
2022-10-13T10:45:28.234Z,19.60
2022-10-13T10:48:00.500Z,18.40
2022-10-13T10:50:30.975Z,18.48
2022-10-13T10:53:27.499Z,18.70
2022-10-13T10:56:02.939Z,19.73
2022-10-13T10:58:54.931Z,19.80
2022-10-13T11:01:32.179Z,19.85
2022-10-13T11:06:44.255Z,21.65
2022-10-13T11:09:11.951Z,21.75
2022-10-13T11:11:41.459Z,22.77
2022-10-13T11:14:12.381Z,21.92
2022-10-13T11:17:11.015Z,21.63
2022-10-13T11:19:40.284Z,20.90
2022-10-13T11:22:07.259Z,21.83
2022-10-13T11:24:38.826Z,20.33
2022-10-13T11:27:10.748Z,21.88
2022-10-13T11:29:53.837Z,19.63
2022-10-13T11:32:30.891Z,21.48
2022-10-13T11:35:06.453Z,21.90
2022-10-13T11:38:00.870Z,20.20
2022-10-13T11:40:54.672Z,20.95
2022-10-13T11:43:35.350Z,20.95
2022-10-13T11:46:15.032Z,21.05
2022-10-13T11:48:50.684Z,21.65
2022-10-13T11:51:26.411Z,23.17
2022-10-13T11:54:33.264Z,22.58
2022-10-13T11:57:00.760Z,22.92
2022-10-13T11:59:31.362Z,23.00
2022-10-13T12:02:18.944Z,23.67
2022-10-13T12:05:02.410Z,22.05
2022-10-13T12:07:35.273Z,21.05
2022-10-13T12:10:06.329Z,22.98
2022-10-13T12:12:34.448Z,23.42
2022-10-13T12:15:05.947Z,23.85
2022-10-13T12:17:39.065Z,24.25
2022-10-13T12:20:28.225Z,24.15
2022-10-13T12:22:56.269Z,23.98
2022-10-13T12:25:26.970Z,25.40
2022-10-13T12:28:00.506Z,23.50
2022-10-13T12:30:29.676Z,22.55
2022-10-13T12:32:59.690Z,23.15
2022-10-13T12:35:30.945Z,26.20
2022-10-13T12:38:01.481Z,25.52
2022-10-13T12:40:29.797Z,27.20
2022-10-13T12:42:57.512Z,26.63
2022-10-13T12:45:28.534Z,25.80
2022-10-13T12:47:55.832Z,26.58
2022-10-13T12:50:35.439Z,27.40
2022-10-13T12:53:12.230Z,26.45
2022-10-13T12:56:00.548Z,27.05
2022-10-13T12:58:30.256Z,27.08
2022-10-13T13:01:18.169Z,28.20
2022-10-13T13:03:45.395Z,27.25
2022-10-13T13:06:13.421Z,25.73
2022-10-13T13:08:42.099Z,27.77
2022-10-13T13:11:38.062Z,26.58
2022-10-13T13:14:35.514Z,27.27
2022-10-13T13:17:38.580Z,29.20
2022-10-13T13:20:21.585Z,26.25
2022-10-13T13:22:50.804Z,28.92
2022-10-13T13:25:17.892Z,27.85
2022-10-13T13:27:45.706Z,26.75
2022-10-13T13:30:19.449Z,26.98
2022-10-13T13:32:46.900Z,25.02
2022-10-13T13:35:14.301Z,26.58
2022-10-13T13:37:47.180Z,26.75
2022-10-13T13:40:18.009Z,26.45
2022-10-13T13:42:45.301Z,26.35
2022-10-13T13:45:13.762Z,26.95
2022-10-13T13:47:41.071Z,25.83
2022-10-13T13:50:26.267Z,25.38
2022-10-13T13:52:56.921Z,26.38
2022-10-13T13:55:24.508Z,30.05
2022-10-13T13:57:51.774Z,27.13
2022-10-13T14:00:19.659Z,28.15
2022-10-13T14:02:50.949Z,26.00
2022-10-13T14:05:18.076Z,24.50
2022-10-13T14:07:45.210Z,25.92
2022-10-13T14:10:12.394Z,25.33
2022-10-13T14:12:40.497Z,24.25
2022-10-13T14:15:08.504Z,25.23
2022-10-13T14:17:35.732Z,24.25
2022-10-13T14:20:02.889Z,25.75
2022-10-13T14:22:30.026Z,24.40
2022-10-13T14:24:57.001Z,24.55
2022-10-13T14:27:24.293Z,25.77
2022-10-13T14:29:52.847Z,24.90
2022-10-13T14:32:20.395Z,23.38
2022-10-13T14:34:47.628Z,23.05
2022-10-13T14:37:14.700Z,24.33
2022-10-13T14:39:41.868Z,24.88
2022-10-13T14:42:09.005Z,23.85
2022-10-13T14:44:36.024Z,24.38
2022-10-13T14:47:03.324Z,24.50
2022-10-13T14:49:30.496Z,24.60
2022-10-13T14:51:57.511Z,24.08
2022-10-13T14:54:26.424Z,26.45
2022-10-13T14:56:53.539Z,24.25
2022-10-13T14:59:20.721Z,24.67
2022-10-13T15:01:49.310Z,24.90
2022-10-13T15:04:16.399Z,24.35
2022-10-13T15:06:43.544Z,25.23
2022-10-13T15:09:12.016Z,25.23
2022-10-13T15:11:39.520Z,24.48
2022-10-13T15:14:07.655Z,26.17
2022-10-13T15:16:37.033Z,25.73
2022-10-13T15:19:05.171Z,24.90
2022-10-13T15:21:32.332Z,26.42
2022-10-13T15:24:01.686Z,26.20
2022-10-13T15:26:29.141Z,25.50
2022-10-13T15:28:56.275Z,26.80
2022-10-13T15:31:24.622Z,25.15
2022-10-13T15:33:54.127Z,26.27
2022-10-13T15:36:23.713Z,24.88
2022-10-13T15:38:51.698Z,25.30
2022-10-13T15:41:23.248Z,25.60
2022-10-13T15:43:52.007Z,26.73
2022-10-13T15:46:24.214Z,27.17
2022-10-13T15:48:53.418Z,25.88
2022-10-13T15:51:22.684Z,26.45
2022-10-13T15:53:50.181Z,24.65
2022-10-13T15:56:17.917Z,24.63
2022-10-13T15:58:45.739Z,24.65
2022-10-13T16:01:14.496Z,25.33
2022-10-13T16:03:43.217Z,28.00
2022-10-13T16:06:12.546Z,27.58
2022-10-13T16:08:41.060Z,25.13
2022-10-13T16:11:11.727Z,27.08
2022-10-13T16:13:39.691Z,24.63
2022-10-13T16:16:07.832Z,27.33
2022-10-13T16:18:37.424Z,25.77
2022-10-13T16:21:21.802Z,27.42
2022-10-13T16:23:49.422Z,24.27
2022-10-13T16:26:18.171Z,26.80
2022-10-13T16:28:46.659Z,25.10
2022-10-13T16:31:15.469Z,27.77
2022-10-13T16:33:43.918Z,26.73
2022-10-13T16:36:15.766Z,26.05
2022-10-13T16:38:44.431Z,25.33
2022-10-13T16:41:14.656Z,26.35
2022-10-13T16:43:42.759Z,26.77
2022-10-13T16:46:13.467Z,26.77
2022-10-13T16:48:41.927Z,27.17
2022-10-13T16:51:13.579Z,27.55
2022-10-13T16:53:41.099Z,27.75
2022-10-13T16:56:09.069Z,27.60
2022-10-13T16:58:36.420Z,28.42
2022-10-13T17:01:06.619Z,30.15
2022-10-13T17:03:33.777Z,29.98
2022-10-13T17:06:00.965Z,31.98
2022-10-13T17:08:28.321Z,51.88
2022-10-13T17:10:58.247Z,71.32
2022-10-13T17:13:26.006Z,86.00
2022-10-13T17:15:54.638Z,83.32
2022-10-13T17:18:22.098Z,75.18
2022-10-13T17:20:56.690Z,64.25
2022-10-13T17:25:52.540Z,40.30
2022-10-13T17:28:20.830Z,39.50
2022-10-13T17:31:06.686Z,36.80
2022-10-13T17:33:35.442Z,37.92
2022-10-13T17:36:07.729Z,37.55
2022-10-13T17:38:35.330Z,36.42
2022-10-13T17:41:05.315Z,36.78
2022-10-13T17:43:34.722Z,40.63
2022-10-13T17:46:36.921Z,49.83
2022-10-13T17:49:14.425Z,44.30
2022-10-13T17:51:45.563Z,41.38
2022-10-13T17:54:16.026Z,37.67
2022-10-13T17:56:51.077Z,38.05
2022-10-13T18:01:46.169Z,36.33
2022-10-13T18:04:17.347Z,34.95
2022-10-13T18:06:45.414Z,35.83
2022-10-13T18:09:17.960Z,37.70
2022-10-13T18:12:11.251Z,34.63
2022-10-13T18:15:11.233Z,35.83
2022-10-13T18:17:43.231Z,37.25
2022-10-13T18:20:11.282Z,36.67
2022-10-13T18:22:38.394Z,37.10
2022-10-13T18:25:06.327Z,36.42
2022-10-13T18:27:33.635Z,37.80
2022-10-13T18:30:00.772Z,39.55
2022-10-13T18:32:29.258Z,36.10
2022-10-13T18:34:57.379Z,36.25
2022-10-13T18:37:24.520Z,35.70
2022-10-13T18:39:52.370Z,35.78
2022-10-13T18:42:20.739Z,36.13
2022-10-13T18:44:48.406Z,37.17
2022-10-13T18:47:15.503Z,35.63
2022-10-13T18:49:42.614Z,36.92
2022-10-13T18:52:09.715Z,37.15
2022-10-13T18:54:39.683Z,39.53
2022-10-13T18:57:06.791Z,37.90
2022-10-13T18:59:42.442Z,37.17
2022-10-13T19:02:14.259Z,38.72
2022-10-13T19:04:41.607Z,40.30
2022-10-13T19:07:08.769Z,40.30
2022-10-13T19:09:35.950Z,38.58
2022-10-13T19:12:02.987Z,39.83
2022-10-13T19:14:30.865Z,40.42
2022-10-13T19:17:01.734Z,38.33
2022-10-13T19:19:34.321Z,39.92
2022-10-13T19:22:02.780Z,39.10
2022-10-13T19:24:31.892Z,40.00
2022-10-13T19:27:05.889Z,40.28
2022-10-13T19:29:36.059Z,40.58
2022-10-13T19:32:05.532Z,39.80
2022-10-13T19:34:33.395Z,38.63
2022-10-13T19:37:03.139Z,39.83
2022-10-13T19:39:30.261Z,39.20
2022-10-13T19:42:00.348Z,38.75
2022-10-13T19:44:27.559Z,40.35
2022-10-13T19:46:55.468Z,39.90
2022-10-13T19:49:26.218Z,39.15
2022-10-13T19:51:54.130Z,40.17
2022-10-13T19:54:22.366Z,40.75
2022-10-13T19:56:50.729Z,39.70
2022-10-13T19:59:18.673Z,42.85
2022-10-13T20:01:46.246Z,40.55
2022-10-13T20:04:14.931Z,40.42
2022-10-13T20:06:44.463Z,40.10
2022-10-13T20:09:12.233Z,38.28
2022-10-13T20:11:39.363Z,36.92
2022-10-13T20:14:06.650Z,37.83
2022-10-13T20:16:33.835Z,36.65
2022-10-13T20:19:01.701Z,41.00
2022-10-13T20:21:29.629Z,35.03
2022-10-13T20:23:57.585Z,40.00
2022-10-13T20:26:25.776Z,39.67
2022-10-13T20:28:54.537Z,37.80
2022-10-13T20:31:22.933Z,39.28
2022-10-13T20:33:55.082Z,38.40
2022-10-13T20:36:24.758Z,38.60
2022-10-13T20:38:52.779Z,37.30
2022-10-13T20:41:24.876Z,36.55
2022-10-13T20:43:53.723Z,37.35
2022-10-13T20:46:21.870Z,45.83
2022-10-13T20:51:37.031Z,42.53
2022-10-13T20:54:04.245Z,41.38
2022-10-13T20:56:31.313Z,40.53
2022-10-13T20:59:03.655Z,40.80
2022-10-13T21:01:30.908Z,40.28
2022-10-13T21:03:58.481Z,39.58
2022-10-13T21:06:27.100Z,38.58
2022-10-13T21:08:54.161Z,39.30
2022-10-13T21:11:23.511Z,37.95
2022-10-13T21:13:52.361Z,38.17
2022-10-13T21:16:22.103Z,34.85
2022-10-13T21:18:50.886Z,36.38
2022-10-13T21:21:21.142Z,39.67
2022-10-13T21:23:53.706Z,34.08
2022-10-13T21:26:22.353Z,32.45
2022-10-13T21:28:50.787Z,32.95
2022-10-13T21:31:19.756Z,32.30
2022-10-13T21:33:47.171Z,35.72
2022-10-13T21:36:16.756Z,37.55
2022-10-13T21:38:45.798Z,36.55
2022-10-13T21:41:14.405Z,36.17
2022-10-13T21:43:41.818Z,36.13
2022-10-13T21:46:15.134Z,34.58
2022-10-13T21:48:43.926Z,28.40
2022-10-13T21:51:21.368Z,40.40
2022-10-13T21:53:50.598Z,37.45
2022-10-13T21:56:18.403Z,36.38
2022-10-13T21:58:46.324Z,35.88
2022-10-13T22:01:13.926Z,34.88
2022-10-13T22:03:41.864Z,35.63
2022-10-13T22:06:17.503Z,35.67
2022-10-13T22:08:47.826Z,31.90
2022-10-13T22:11:20.626Z,30.50
2022-10-13T22:13:47.720Z,30.10
2022-10-13T22:16:17.674Z,28.65
2022-10-13T22:18:45.336Z,29.23
2022-10-13T22:21:16.503Z,29.55
2022-10-13T22:23:44.319Z,30.95
2022-10-13T22:26:12.382Z,33.75
2022-10-13T22:28:40.033Z,30.98
2022-10-13T22:31:10.053Z,30.48
2022-10-13T22:33:39.099Z,29.13
2022-10-13T22:36:08.992Z,29.08
2022-10-13T22:38:36.263Z,27.10
2022-10-13T22:41:05.623Z,28.05
2022-10-13T22:43:33.119Z,27.60
2022-10-13T22:46:12.324Z,28.52
2022-10-13T22:48:41.139Z,29.17
2022-10-13T22:51:15.103Z,32.67
2022-10-13T22:53:42.254Z,30.67
2022-10-13T22:56:12.783Z,30.38
2022-10-13T22:58:40.266Z,30.17
2022-10-13T23:01:11.405Z,30.95
2022-10-13T23:03:39.493Z,34.30
2022-10-13T23:06:08.178Z,36.50
2022-10-13T23:08:35.516Z,33.13
2022-10-13T23:11:02.666Z,33.63
2022-10-13T23:13:29.706Z,31.95
2022-10-13T23:16:08.557Z,33.03
2022-10-13T23:18:38.592Z,31.75
2022-10-13T23:21:08.003Z,31.15
2022-10-13T23:23:35.385Z,30.27
2022-10-13T23:26:04.582Z,32.42
2022-10-13T23:28:32.859Z,33.83
2022-10-13T23:31:06.752Z,31.73
2022-10-13T23:33:34.469Z,29.80
2022-10-13T23:36:02.765Z,29.25
2022-10-13T23:38:31.250Z,28.63
2022-10-13T23:41:09.350Z,28.75
2022-10-13T23:43:36.719Z,29.95
2022-10-13T23:46:03.933Z,29.77
2022-10-13T23:48:31.152Z,30.92
2022-10-13T23:50:58.247Z,33.17
2022-10-13T23:53:25.354Z,32.13
2022-10-13T23:55:52.505Z,32.88
2022-10-13T23:58:25.887Z,32.83
